createdAt,value
2023-03-02T00:02:18.103Z,99.90
2023-03-02T00:04:56.782Z,99.90
2023-03-02T00:07:32.157Z,99.90
2023-03-02T00:10:00.710Z,99.90
2023-03-02T00:12:29.099Z,99.90
2023-03-02T00:14:57.230Z,99.90
2023-03-02T00:17:28.376Z,99.90
2023-03-02T00:20:11.743Z,99.90
2023-03-02T00:22:41.989Z,99.90
2023-03-02T00:25:12.278Z,99.90
2023-03-02T00:27:40.183Z,99.90
2023-03-02T00:30:12.135Z,99.90
2023-03-02T00:32:40.528Z,99.90
2023-03-02T00:35:09.115Z,99.90
2023-03-02T00:37:38.779Z,99.90
2023-03-02T00:40:09.714Z,99.90
2023-03-02T00:42:37.659Z,99.90
2023-03-02T00:45:06.596Z,99.90
2023-03-02T00:47:35.803Z,99.90
2023-03-02T00:50:06.309Z,99.90
2023-03-02T00:52:34.656Z,99.90
2023-03-02T00:55:02.818Z,99.90
2023-03-02T00:57:30.620Z,99.90
2023-03-02T00:59:58.752Z,99.90
2023-03-02T01:02:34.864Z,99.90
2023-03-02T01:05:03.486Z,99.90
2023-03-02T01:07:31.595Z,99.90
2023-03-02T01:09:59.585Z,99.90
2023-03-02T01:12:27.377Z,99.90
2023-03-02T01:14:55.432Z,99.90
2023-03-02T01:17:26.596Z,99.90
2023-03-02T01:19:54.804Z,99.90
2023-03-02T01:22:23.210Z,99.90
2023-03-02T01:24:51.956Z,99.90
2023-03-02T01:27:20.579Z,99.90
2023-03-02T01:29:48.587Z,99.90
2023-03-02T01:32:16.493Z,99.90
2023-03-02T01:34:44.612Z,99.90
2023-03-02T01:37:12.844Z,99.90
2023-03-02T01:39:40.870Z,99.90
2023-03-02T01:42:09.097Z,99.90
2023-03-02T01:44:37.128Z,99.90
2023-03-02T01:47:25.430Z,99.90
2023-03-02T01:50:24.728Z,99.90
2023-03-02T01:52:57.504Z,99.90
2023-03-02T01:55:31.608Z,99.90
2023-03-02T01:58:01.018Z,99.90
2023-03-02T02:00:36.774Z,99.90
2023-03-02T02:03:22.508Z,99.90
2023-03-02T02:06:21.598Z,99.90
2023-03-02T02:08:50.937Z,99.90
2023-03-02T02:11:19.281Z,99.90
2023-03-02T02:13:59.545Z,99.90
2023-03-02T02:16:31.165Z,99.90
2023-03-02T02:19:00.018Z,99.90
2023-03-02T02:21:28.840Z,99.90
2023-03-02T02:24:21.734Z,99.90
2023-03-02T02:26:53.319Z,99.90
2023-03-02T02:29:34.764Z,99.90
2023-03-02T02:32:26.502Z,99.90
2023-03-02T02:35:05.189Z,99.90
2023-03-02T02:37:42.231Z,99.90
2023-03-02T02:40:38.590Z,99.90
2023-03-02T02:43:09.345Z,99.90
2023-03-02T02:45:37.191Z,99.90
2023-03-02T02:48:06.044Z,99.90
2023-03-02T02:50:35.831Z,99.90
2023-03-02T02:53:11.376Z,99.90
2023-03-02T02:55:42.901Z,99.90
2023-03-02T02:58:44.157Z,99.90
2023-03-02T03:01:15.607Z,99.90
2023-03-02T03:03:51.185Z,99.90
2023-03-02T03:06:25.616Z,99.90
2023-03-02T03:08:57.340Z,99.90
2023-03-02T03:11:48.617Z,99.90
2023-03-02T03:14:19.874Z,99.90
2023-03-02T03:16:50.754Z,99.90
2023-03-02T03:19:28.484Z,99.90
2023-03-02T03:22:00.315Z,99.90
2023-03-02T03:24:34.133Z,99.90
2023-03-02T03:27:05.493Z,99.90
2023-03-02T03:29:40.012Z,99.90
2023-03-02T03:32:10.167Z,99.90
2023-03-02T03:34:40.907Z,99.90
2023-03-02T03:37:20.689Z,99.90
2023-03-02T03:39:49.482Z,99.90
2023-03-02T03:42:18.855Z,99.90
2023-03-02T03:44:47.766Z,99.90
2023-03-02T03:47:15.682Z,99.90
2023-03-02T03:49:44.250Z,99.90
2023-03-02T03:52:12.289Z,99.90
2023-03-02T03:54:40.589Z,99.90
2023-03-02T03:57:08.356Z,99.90
2023-03-02T03:59:36.399Z,99.90
2023-03-02T04:02:05.746Z,99.90
2023-03-02T04:04:37.449Z,99.90
2023-03-02T04:07:17.608Z,99.90
2023-03-02T04:09:47.189Z,99.90
2023-03-02T04:12:16.564Z,99.90
2023-03-02T04:14:50.184Z,99.90
2023-03-02T04:17:21.068Z,99.90
2023-03-02T04:19:53.862Z,99.90
2023-03-02T04:22:22.161Z,99.90
2023-03-02T04:24:52.063Z,99.90
2023-03-02T04:27:20.824Z,99.90
2023-03-02T04:29:49.474Z,99.90
2023-03-02T04:32:17.399Z,99.90
2023-03-02T04:34:51.153Z,99.90
2023-03-02T04:37:19.804Z,99.90
2023-03-02T04:39:51.318Z,99.90
2023-03-02T04:42:20.634Z,99.90
2023-03-02T04:44:49.069Z,99.90
2023-03-02T04:47:17.015Z,99.90
2023-03-02T04:49:45.350Z,99.90
2023-03-02T04:52:15.418Z,99.90
2023-03-02T04:54:43.561Z,99.90
2023-03-02T04:57:11.371Z,99.90
2023-03-02T04:59:39.580Z,99.90
2023-03-02T05:02:07.811Z,99.90
2023-03-02T05:04:36.126Z,99.90
2023-03-02T05:07:03.866Z,99.90
2023-03-02T05:09:31.992Z,99.90
2023-03-02T05:12:01.536Z,99.90
2023-03-02T05:14:29.915Z,99.90
2023-03-02T05:16:58.499Z,99.90
2023-03-02T05:19:26.771Z,99.90
2023-03-02T05:21:54.558Z,99.90
2023-03-02T05:24:22.573Z,99.90
2023-03-02T05:26:50.573Z,99.90
2023-03-02T05:29:18.585Z,99.90
2023-03-02T05:31:47.432Z,99.90
2023-03-02T05:34:18.520Z,99.90
2023-03-02T05:36:46.684Z,99.90
2023-03-02T05:39:14.956Z,99.90
2023-03-02T05:41:42.714Z,99.90
2023-03-02T05:44:12.217Z,99.90
2023-03-02T05:48:42.855Z,99.90
2023-03-02T05:51:10.966Z,99.90
2023-03-02T05:53:40.825Z,99.90
2023-03-02T05:56:11.822Z,99.90
2023-03-02T05:58:39.627Z,99.90
2023-03-02T06:01:14.862Z,99.90
2023-03-02T06:03:43.981Z,99.90
2023-03-02T06:06:15.194Z,99.90
2023-03-02T06:08:43.991Z,99.90
2023-03-02T06:11:12.383Z,99.90
2023-03-02T06:13:40.751Z,99.90
2023-03-02T06:16:09.523Z,99.90
2023-03-02T06:18:40.350Z,99.90
2023-03-02T06:21:09.978Z,99.90
2023-03-02T06:23:37.721Z,99.90
2023-03-02T06:26:12.906Z,99.90
2023-03-02T06:28:51.940Z,99.90
2023-03-02T06:31:22.193Z,99.90
2023-03-02T06:33:50.146Z,99.90
2023-03-02T06:36:18.323Z,99.90
2023-03-02T06:38:46.282Z,99.90
2023-03-02T06:41:14.352Z,99.90
2023-03-02T06:43:47.204Z,99.90
2023-03-02T06:46:15.249Z,99.90
2023-03-02T06:48:43.044Z,99.90
2023-03-02T06:51:12.677Z,99.90
2023-03-02T06:53:40.689Z,99.90
2023-03-02T06:56:08.768Z,99.90
2023-03-02T06:58:37.272Z,99.90
2023-03-02T07:01:07.818Z,99.90
2023-03-02T07:03:36.327Z,99.90
2023-03-02T07:06:04.693Z,99.90
2023-03-02T07:08:32.828Z,99.90
2023-03-02T07:11:05.514Z,99.90
2023-03-02T07:13:33.196Z,99.90
2023-03-02T07:16:05.239Z,99.90
2023-03-02T07:18:32.942Z,99.90
2023-03-02T07:21:00.947Z,99.90
2023-03-02T07:23:28.677Z,99.90
2023-03-02T07:25:56.756Z,99.90
2023-03-02T07:28:25.421Z,99.90
2023-03-02T07:30:54.241Z,99.90
2023-03-02T07:33:22.574Z,99.90
2023-03-02T07:35:50.844Z,99.90
2023-03-02T07:38:19.359Z,99.90
2023-03-02T07:40:47.406Z,99.90
2023-03-02T07:43:15.272Z,99.90
2023-03-02T07:45:43.582Z,99.90
2023-03-02T07:48:11.423Z,99.90
2023-03-02T07:50:39.540Z,99.90
2023-03-02T07:53:07.334Z,99.90
2023-03-02T07:55:35.367Z,99.90
2023-03-02T07:58:03.031Z,99.90
2023-03-02T08:00:30.988Z,99.90
2023-03-02T08:02:58.853Z,99.90
2023-03-02T08:05:26.961Z,99.90
2023-03-02T08:07:54.752Z,99.90
2023-03-02T08:10:23.416Z,99.90
2023-03-02T08:12:51.200Z,99.90
2023-03-02T08:15:19.339Z,99.90
2023-03-02T08:17:47.143Z,99.90
2023-03-02T08:20:15.193Z,99.90
2023-03-02T08:22:43.090Z,99.90
2023-03-02T08:25:11.163Z,99.90
2023-03-02T08:27:40.372Z,99.90
2023-03-02T08:30:10.695Z,99.90
2023-03-02T08:32:39.153Z,99.90
2023-03-02T08:35:07.676Z,99.90
2023-03-02T08:37:35.441Z,99.90
2023-03-02T08:40:04.111Z,99.90
2023-03-02T08:42:31.858Z,99.90
2023-03-02T08:44:59.864Z,99.90
2023-03-02T08:47:28.344Z,99.90
2023-03-02T08:49:56.347Z,99.90
2023-03-02T08:52:24.459Z,99.90
2023-03-02T08:54:52.906Z,99.90
2023-03-02T08:57:21.424Z,99.90
2023-03-02T08:59:49.779Z,99.90
2023-03-02T09:02:18.334Z,99.90
2023-03-02T09:04:46.599Z,99.90
2023-03-02T09:07:17.335Z,99.90
2023-03-02T09:09:45.445Z,99.90
2023-03-02T09:12:13.532Z,99.90
2023-03-02T09:14:41.982Z,99.90
2023-03-02T09:17:12.994Z,99.90
2023-03-02T09:19:44.247Z,99.90
2023-03-02T09:22:12.718Z,99.90
2023-03-02T09:24:40.756Z,99.90
2023-03-02T09:27:08.534Z,99.90
2023-03-02T09:29:36.530Z,99.90
2023-03-02T09:32:04.479Z,99.90
2023-03-02T09:34:32.729Z,99.90
2023-03-02T09:37:00.461Z,99.90
2023-03-02T09:39:28.548Z,99.90
2023-03-02T09:42:18.721Z,99.90
2023-03-02T09:44:49.728Z,99.90
2023-03-02T09:47:47.145Z,99.90
2023-03-02T09:50:27.419Z,99.90
2023-03-02T09:53:07.465Z,99.90
2023-03-02T09:55:36.953Z,99.90
2023-03-02T09:58:15.009Z,99.90
2023-03-02T10:00:44.919Z,99.90
2023-03-02T10:03:20.461Z,99.90
2023-03-02T10:05:56.178Z,99.90
2023-03-02T10:08:27.256Z,99.90
2023-03-02T10:11:22.009Z,99.90
2023-03-02T10:14:02.006Z,99.90
2023-03-02T10:16:39.284Z,99.90
2023-03-02T10:19:12.686Z,99.90
2023-03-02T10:21:45.400Z,99.90
2023-03-02T10:24:31.667Z,99.90
2023-03-02T10:27:12.401Z,99.90
2023-03-02T10:29:43.974Z,99.90
2023-03-02T10:32:44.123Z,99.90
2023-03-02T10:35:21.070Z,99.90
2023-03-02T10:37:55.324Z,99.90
2023-03-02T10:40:38.409Z,99.90
2023-03-02T10:43:11.697Z,99.90
2023-03-02T10:45:39.458Z,99.90
2023-03-02T10:48:11.318Z,99.90
2023-03-02T10:50:39.491Z,99.90
2023-03-02T10:53:15.699Z,99.90
2023-03-02T10:55:49.525Z,99.90
2023-03-02T10:58:32.697Z,99.90
2023-03-02T11:01:16.107Z,97.40
2023-03-02T11:03:56.435Z,96.70
2023-03-02T11:06:24.970Z,94.70
2023-03-02T11:09:07.587Z,95.70
2023-03-02T11:11:36.608Z,96.00
2023-03-02T11:14:19.224Z,96.60
2023-03-02T11:16:47.129Z,96.90
2023-03-02T11:19:24.362Z,97.20
2023-03-02T11:22:30.158Z,96.20
2023-03-02T11:25:00.174Z,95.10
2023-03-02T11:27:32.736Z,96.30
2023-03-02T11:30:22.819Z,96.00
2023-03-02T11:33:25.833Z,95.30
2023-03-02T11:36:04.387Z,96.00
2023-03-02T11:38:58.616Z,95.80
2023-03-02T11:41:33.155Z,94.80
2023-03-02T11:44:10.053Z,94.60
2023-03-02T11:46:39.107Z,94.50
2023-03-02T11:49:19.528Z,94.70
2023-03-02T11:51:59.690Z,94.40
2023-03-02T11:54:44.908Z,93.80
2023-03-02T11:57:35.570Z,92.00
2023-03-02T12:00:34.184Z,90.80
2023-03-02T12:03:17.778Z,91.40
2023-03-02T12:06:00.117Z,90.20
2023-03-02T12:08:33.032Z,89.00
2023-03-02T12:11:00.789Z,87.30
2023-03-02T12:13:34.342Z,86.60
2023-03-02T12:16:02.534Z,84.60
2023-03-02T12:18:42.232Z,84.10
2023-03-02T12:21:12.179Z,84.40
2023-03-02T12:23:48.952Z,85.20
2023-03-02T12:26:19.766Z,83.40
2023-03-02T12:29:09.654Z,83.80
2023-03-02T12:31:43.667Z,82.50
2023-03-02T12:34:31.354Z,80.90
2023-03-02T12:37:05.642Z,80.50
2023-03-02T12:40:03.103Z,79.80
2023-03-02T12:42:34.144Z,79.10
2023-03-02T12:45:16.420Z,78.30
2023-03-02T12:47:49.581Z,78.70
2023-03-02T12:50:27.506Z,77.10
2023-03-02T12:53:01.371Z,77.60
2023-03-02T12:55:32.739Z,77.70
2023-03-02T12:58:01.974Z,76.10
2023-03-02T13:00:34.684Z,75.00
2023-03-02T13:03:03.144Z,74.50
2023-03-02T13:05:34.932Z,74.60
2023-03-02T13:08:28.775Z,74.70
2023-03-02T13:11:02.079Z,74.80
2023-03-02T13:13:33.073Z,74.10
2023-03-02T13:16:21.668Z,74.40
2023-03-02T13:18:55.424Z,73.10
2023-03-02T13:21:39.234Z,72.30
2023-03-02T13:24:25.907Z,71.20
2023-03-02T13:27:21.017Z,71.50
2023-03-02T13:29:50.199Z,71.90
2023-03-02T13:32:25.978Z,71.50
2023-03-02T13:34:59.483Z,71.60
2023-03-02T13:37:40.292Z,71.30
2023-03-02T13:40:30.910Z,71.20
2023-03-02T13:42:59.155Z,71.80
2023-03-02T13:45:31.098Z,70.20
2023-03-02T13:48:17.246Z,69.20
2023-03-02T13:50:53.942Z,68.00
2023-03-02T13:53:22.244Z,67.80
2023-03-02T13:55:52.530Z,66.80
2023-03-02T13:58:21.465Z,66.60
2023-03-02T14:00:50.791Z,66.70
2023-03-02T14:03:27.806Z,66.70
2023-03-02T14:05:59.767Z,65.80
2023-03-02T14:08:29.864Z,66.10
2023-03-02T14:11:00.776Z,66.00
2023-03-02T14:13:54.139Z,66.50
2023-03-02T14:16:22.398Z,66.70
2023-03-02T14:18:52.703Z,67.00
2023-03-02T14:21:23.179Z,66.60
2023-03-02T14:23:52.640Z,66.20
2023-03-02T14:26:26.727Z,66.40
2023-03-02T14:29:04.916Z,66.40
2023-03-02T14:31:34.783Z,65.80
2023-03-02T14:34:03.001Z,65.80
2023-03-02T14:36:34.827Z,65.30
2023-03-02T14:39:05.877Z,65.00
2023-03-02T14:41:51.196Z,65.70
2023-03-02T14:44:21.309Z,66.20
2023-03-02T14:46:49.660Z,66.50
2023-03-02T14:49:17.494Z,66.70
2023-03-02T14:51:55.995Z,65.90
2023-03-02T14:54:23.941Z,66.70
2023-03-02T14:56:52.616Z,66.90
2023-03-02T14:59:20.530Z,66.30
2023-03-02T15:01:48.681Z,65.30
2023-03-02T15:04:16.542Z,64.60
2023-03-02T15:06:45.797Z,65.00
2023-03-02T15:09:13.533Z,64.50
2023-03-02T15:11:41.534Z,64.90
2023-03-02T15:14:09.483Z,64.70
2023-03-02T15:16:37.505Z,65.30
2023-03-02T15:19:08.732Z,65.10
2023-03-02T15:21:37.318Z,65.40
2023-03-02T15:24:05.619Z,65.00
2023-03-02T15:26:33.618Z,65.50
2023-03-02T15:29:01.407Z,65.90
2023-03-02T15:31:29.553Z,65.70
2023-03-02T15:33:57.443Z,65.50
2023-03-02T15:36:26.430Z,65.30
2023-03-02T15:38:55.090Z,65.10
2023-03-02T15:41:23.240Z,65.20
2023-03-02T15:43:52.575Z,65.40
2023-03-02T15:46:22.228Z,66.10
2023-03-02T15:48:53.674Z,65.60
2023-03-02T15:51:21.858Z,65.70
2023-03-02T15:53:49.606Z,65.60
2023-03-02T15:56:17.713Z,65.70
2023-03-02T15:58:47.363Z,65.70
2023-03-02T16:01:16.343Z,65.10
2023-03-02T16:03:45.631Z,64.60
2023-03-02T16:06:15.720Z,62.90
2023-03-02T16:08:43.614Z,63.20
2023-03-02T16:11:12.446Z,62.50
2023-03-02T16:13:40.194Z,63.10
2023-03-02T16:16:09.451Z,62.80
2023-03-02T16:18:37.151Z,63.00
2023-03-02T16:21:05.314Z,63.30
2023-03-02T16:23:33.413Z,63.40
2023-03-02T16:26:09.865Z,63.30
2023-03-02T16:28:37.656Z,63.60
2023-03-02T16:31:08.288Z,62.70
2023-03-02T16:33:36.823Z,63.10
2023-03-02T16:36:08.278Z,63.00
2023-03-02T16:38:37.341Z,63.30
2023-03-02T16:41:17.774Z,63.80
2023-03-02T16:43:48.579Z,64.00
2023-03-02T16:46:17.526Z,63.90
2023-03-02T16:48:46.340Z,63.80
2023-03-02T16:51:14.800Z,64.80
2023-03-02T16:53:46.240Z,63.80
2023-03-02T16:56:15.076Z,64.00
2023-03-02T16:58:43.226Z,64.50
2023-03-02T17:01:17.971Z,65.70
2023-03-02T17:03:47.627Z,66.20
2023-03-02T17:06:17.633Z,67.10
2023-03-02T17:08:45.569Z,68.20
2023-03-02T17:11:13.677Z,68.50
2023-03-02T17:13:41.524Z,68.80
2023-03-02T17:16:09.722Z,69.40
2023-03-02T17:18:37.516Z,69.60
2023-03-02T17:21:06.794Z,69.90
2023-03-02T17:23:34.575Z,70.10
2023-03-02T17:26:03.706Z,70.40
2023-03-02T17:29:13.804Z,70.70
2023-03-02T17:31:49.624Z,71.20
2023-03-02T17:34:18.437Z,71.60
2023-03-02T17:36:46.768Z,71.80
2023-03-02T17:39:14.562Z,72.10
2023-03-02T17:41:42.727Z,72.40
2023-03-02T17:44:10.428Z,72.60
2023-03-02T17:46:38.477Z,72.70
2023-03-02T17:49:06.237Z,73.10
2023-03-02T17:53:57.611Z,73.00
2023-03-02T17:56:28.594Z,73.60
2023-03-02T17:59:01.215Z,73.50
2023-03-02T18:01:30.064Z,73.70
2023-03-02T18:03:58.100Z,73.90
2023-03-02T18:06:26.152Z,74.20
2023-03-02T18:08:54.262Z,74.60
2023-03-02T18:11:24.076Z,74.90
2023-03-02T18:13:54.915Z,75.40
2023-03-02T18:16:24.445Z,76.00
2023-03-02T18:18:53.929Z,76.90
2023-03-02T18:21:22.611Z,77.50
2023-03-02T18:23:50.465Z,78.30
2023-03-02T18:26:18.778Z,79.10
2023-03-02T18:28:46.591Z,79.70
2023-03-02T18:31:16.221Z,80.30
2023-03-02T18:33:44.349Z,81.10
2023-03-02T18:36:12.628Z,81.90
2023-03-02T18:38:41.090Z,82.60
2023-03-02T18:41:12.999Z,83.70
2023-03-02T18:43:42.538Z,84.40
2023-03-02T18:46:31.437Z,85.20
2023-03-02T18:49:00.988Z,87.10
2023-03-02T18:51:29.033Z,87.10
2023-03-02T18:53:57.277Z,88.50
2023-03-02T18:56:27.840Z,89.30
2023-03-02T18:58:55.749Z,90.50
2023-03-02T19:01:23.832Z,90.90
2023-03-02T19:03:53.328Z,91.30
2023-03-02T19:06:23.083Z,91.80
2023-03-02T19:08:50.916Z,92.30
2023-03-02T19:11:19.192Z,92.90
2023-03-02T19:13:47.383Z,93.30
2023-03-02T19:16:17.857Z,93.90
2023-03-02T19:18:46.257Z,94.20
2023-03-02T19:21:14.419Z,94.70
2023-03-02T19:23:42.498Z,95.20
2023-03-02T19:26:10.817Z,95.50
2023-03-02T19:28:39.961Z,95.90
2023-03-02T19:31:11.320Z,96.20
2023-03-02T19:33:40.402Z,96.90
2023-03-02T19:36:09.136Z,97.10
2023-03-02T19:38:44.627Z,97.50
2023-03-02T19:41:16.317Z,97.90
2023-03-02T19:43:46.141Z,98.30
2023-03-02T19:46:16.215Z,98.80
2023-03-02T19:48:44.635Z,99.40
2023-03-02T19:51:15.066Z,99.90
2023-03-02T19:53:47.037Z,99.90
2023-03-02T19:56:43.703Z,99.90
2023-03-02T19:59:11.858Z,99.90
2023-03-02T20:01:39.717Z,99.90
2023-03-02T20:04:07.905Z,99.90
2023-03-02T20:06:35.891Z,99.90
2023-03-02T20:09:06.372Z,99.90
2023-03-02T20:11:34.806Z,99.90
2023-03-02T20:14:02.934Z,99.90
2023-03-02T20:16:32.644Z,99.90
2023-03-02T20:19:02.492Z,99.90
2023-03-02T20:21:32.322Z,99.90
2023-03-02T20:24:00.810Z,99.90
2023-03-02T20:26:28.770Z,99.90
2023-03-02T20:28:58.881Z,99.90
2023-03-02T20:31:26.899Z,99.90
2023-03-02T20:33:56.874Z,99.90
2023-03-02T20:36:33.109Z,99.90
2023-03-02T20:39:25.724Z,99.90
2023-03-02T20:41:54.060Z,99.90
2023-03-02T20:44:23.281Z,99.90
2023-03-02T20:46:55.856Z,99.90
2023-03-02T20:49:26.831Z,99.90
2023-03-02T20:51:57.473Z,99.90
2023-03-02T20:54:31.747Z,99.90
2023-03-02T20:56:59.522Z,99.90
2023-03-02T20:59:28.685Z,99.90
2023-03-02T21:01:56.613Z,99.90
2023-03-02T21:04:26.378Z,99.90
2023-03-02T21:06:55.119Z,99.90
2023-03-02T21:09:23.133Z,99.90
2023-03-02T21:11:51.067Z,99.90
2023-03-02T21:14:19.714Z,99.90
2023-03-02T21:16:47.609Z,99.90
2023-03-02T21:19:18.097Z,99.90
2023-03-02T21:21:47.510Z,99.90
2023-03-02T21:24:20.759Z,99.90
2023-03-02T21:26:50.468Z,99.90
2023-03-02T21:29:20.313Z,99.90
2023-03-02T21:31:50.629Z,99.90
2023-03-02T21:34:19.222Z,99.90
2023-03-02T21:36:47.206Z,99.90
2023-03-02T21:39:15.708Z,99.90
2023-03-02T21:41:43.632Z,99.90
2023-03-02T21:44:12.546Z,99.90
2023-03-02T21:46:40.453Z,99.90
2023-03-02T21:49:08.806Z,99.90
2023-03-02T21:51:37.077Z,99.90
2023-03-02T21:54:05.243Z,99.90
2023-03-02T21:56:35.634Z,99.90
2023-03-02T21:59:04.466Z,99.90
2023-03-02T22:01:35.517Z,99.90
2023-03-02T22:04:03.758Z,99.90
2023-03-02T22:06:33.474Z,99.90
2023-03-02T22:09:02.754Z,99.90
2023-03-02T22:11:34.406Z,99.90
2023-03-02T22:14:11.705Z,99.90
2023-03-02T22:16:42.166Z,99.90
2023-03-02T22:19:31.280Z,99.90
2023-03-02T22:22:00.558Z,99.90
2023-03-02T22:24:31.070Z,99.90
2023-03-02T22:27:21.883Z,99.90
2023-03-02T22:29:51.063Z,99.90
2023-03-02T22:32:30.916Z,99.90
2023-03-02T22:35:25.961Z,99.90
2023-03-02T22:38:07.100Z,99.90
2023-03-02T22:40:35.560Z,99.90
2023-03-02T22:43:31.754Z,99.90
2023-03-02T22:46:08.826Z,99.90
2023-03-02T22:48:38.671Z,99.90
2023-03-02T22:51:17.304Z,99.90
2023-03-02T22:53:49.725Z,99.90
2023-03-02T22:56:37.298Z,99.90
2023-03-02T22:59:18.210Z,99.90
2023-03-02T23:01:47.723Z,99.90
2023-03-02T23:04:18.182Z,99.90
2023-03-02T23:06:49.521Z,99.90
2023-03-02T23:09:28.482Z,99.90
2023-03-02T23:12:05.044Z,99.90
2023-03-02T23:14:47.673Z,99.90
2023-03-02T23:17:36.914Z,99.90
2023-03-02T23:20:07.980Z,99.90
2023-03-02T23:22:36.551Z,99.90
2023-03-02T23:25:05.214Z,99.90
2023-03-02T23:27:33.248Z,99.90
2023-03-02T23:30:01.710Z,99.90
2023-03-02T23:32:29.769Z,99.90
2023-03-02T23:34:57.557Z,99.90
2023-03-02T23:37:25.805Z,99.90
2023-03-02T23:39:53.531Z,99.90
2023-03-02T23:42:24.430Z,99.90
2023-03-02T23:44:52.205Z,99.90
2023-03-02T23:47:20.259Z,99.90
2023-03-02T23:49:48.100Z,99.90
2023-03-02T23:52:16.160Z,99.90
2023-03-02T23:54:46.161Z,99.90
2023-03-02T23:57:14.410Z,99.90
2023-03-02T23:59:42.162Z,99.90
